Time;durP1;ratioP1;P1;durP2;ratioP2;P2;SDS_P1;SDS_P2;PMS_P1;PMS_P2;Temp;Humidity;BMP_temperature;BMP_pressure;BME280_temperature;BME280_humidity;BME280_pressure;Samples;Min_cycle;Max_cycle;Signal;HPM_P1;HPM_P2
2020/12/29 00:01:39;;;;;;;7.00;3.70;;;1.30;99.90;;;;;;5011328;28;20209;-77
2020/12/29 00:04:10;;;;;;;4.13;3.20;;;1.30;99.90;;;;;;5011520;28;20200;-77
2020/12/29 00:06:43;;;;;;;3.45;2.55;;;1.30;99.90;;;;;;5011049;28;20236;-77
2020/12/29 00:09:09;;;;;;;3.20;2.72;;;1.20;99.90;;;;;;5011356;28;20193;-78
2020/12/29 00:11:35;;;;;;;5.45;2.85;;;1.20;99.90;;;;;;5011012;28;20564;-77
2020/12/29 00:14:01;;;;;;;3.20;2.90;;;1.30;99.90;;;;;;5010940;28;20201;-77
2020/12/29 00:16:28;;;;;;;3.30;3.00;;;1.20;99.90;;;;;;5010743;28;20448;-77
2020/12/29 00:18:54;;;;;;;3.33;2.85;;;1.20;99.90;;;;;;5011241;28;20506;-78
2020/12/29 00:21:21;;;;;;;3.50;3.20;;;1.30;99.90;;;;;;5010642;28;20212;-77
2020/12/29 00:23:47;;;;;;;4.53;3.15;;;1.30;99.90;;;;;;5010963;28;20194;-78
2020/12/29 00:26:14;;;;;;;5.13;2.85;;;1.30;99.90;;;;;;5010651;28;20292;-77
2020/12/29 00:28:40;;;;;;;3.95;3.25;;;1.30;99.90;;;;;;5011456;28;20525;-78
2020/12/29 00:31:05;;;;;;;3.28;3.08;;;1.30;99.90;;;;;;5010403;28;20210;-77
2020/12/29 00:33:32;;;;;;;3.67;3.13;;;1.30;99.90;;;;;;5010828;28;20209;-77
2020/12/29 00:35:58;;;;;;;3.50;2.80;;;1.30;99.90;;;;;;5013139;28;20212;-77
2020/12/29 00:38:24;;;;;;;3.63;3.33;;;1.30;99.90;;;;;;5014863;28;20280;-78
2020/12/29 00:40:50;;;;;;;4.65;3.22;;;1.40;99.90;;;;;;5014458;28;20664;-77
2020/12/29 00:43:15;;;;;;;3.10;2.80;;;1.40;99.90;;;;;;5015095;28;20276;-77
2020/12/29 00:45:41;;;;;;;5.80;3.63;;;1.40;99.90;;;;;;5014139;28;20296;-77
2020/12/29 00:48:07;;;;;;;3.37;3.07;;;1.50;99.90;;;;;;5014617;28;20592;-77
2020/12/29 00:50:33;;;;;;;5.00;3.00;;;1.50;99.90;;;;;;5013267;28;20455;-77
2020/12/29 00:52:58;;;;;;;3.13;2.73;;;1.60;99.90;;;;;;5014263;28;20198;-77
2020/12/29 00:55:24;;;;;;;3.70;3.20;;;1.60;99.90;;;;;;5014022;28;20597;-77
2020/12/29 00:57:49;;;;;;;3.20;2.90;;;1.60;99.90;;;;;;5014589;28;20645;-78
2020/12/29 01:00:15;;;;;;;3.50;3.20;;;1.60;99.90;;;;;;5014404;28;20621;-77
2020/12/29 01:02:42;;;;;;;5.40;2.87;;;1.70;99.90;;;;;;5014185;28;20725;-77
2020/12/29 01:05:08;;;;;;;4.53;3.40;;;1.80;99.90;;;;;;5013979;28;20648;-77
2020/12/29 01:07:37;;;;;;;3.20;2.90;;;1.80;99.90;;;;;;5014228;28;20178;-77
2020/12/29 01:10:03;;;;;;;4.65;3.08;;;1.70;99.90;;;;;;5013762;28;20467;-77
2020/12/29 01:12:29;;;;;;;2.70;2.50;;;1.80;99.90;;;;;;5014389;28;20197;-78
2020/12/29 01:14:55;;;;;;;4.47;3.27;;;1.80;99.90;;;;;;5014080;28;20196;-77
2020/12/29 01:17:20;;;;;;;4.53;3.20;;;1.80;99.90;;;;;;5014689;28;20463;-77
2020/12/29 01:19:46;;;;;;;2.83;2.60;;;1.80;99.90;;;;;;5014513;28;20177;-78
2020/12/29 01:22:13;;;;;;;4.27;2.87;;;1.80;99.90;;;;;;5014051;28;20213;-77
2020/12/29 01:24:38;;;;;;;2.90;2.53;;;1.80;99.90;;;;;;5014299;28;20571;-78
2020/12/29 01:27:04;;;;;;;3.10;2.70;;;1.90;99.90;;;;;;5014007;28;20221;-77
2020/12/29 01:29:30;;;;;;;5.10;2.70;;;1.80;99.90;;;;;;5014539;28;20214;-77
2020/12/29 01:31:58;;;;;;;3.47;2.70;;;1.80;99.90;;;;;;5013583;28;20210;-77
2020/12/29 01:34:24;;;;;;;3.25;2.95;;;1.80;99.90;;;;;;5014373;28;20305;-78
2020/12/29 01:36:49;;;;;;;4.10;2.80;;;1.80;99.90;;;;;;5013743;28;20572;-77
2020/12/29 01:39:15;;;;;;;3.00;2.63;;;1.80;99.90;;;;;;5014350;28;20686;-77
2020/12/29 01:41:41;;;;;;;4.32;2.80;;;1.80;99.90;;;;;;5013413;28;20213;-78
2020/12/29 01:44:20;;;;;;;3.53;3.07;;;1.80;99.90;;;;;;5012739;28;20540;-77
2020/12/29 01:46:49;;;;;;;2.95;2.47;;;1.80;99.90;;;;;;5013022;28;20217;-77
2020/12/29 01:49:18;;;;;;;2.88;2.50;;;1.80;99.90;;;;;;5013784;28;20632;-78
2020/12/29 01:51:44;;;;;;;5.97;3.80;;;1.80;99.90;;;;;;5013385;28;20699;-77
2020/12/29 01:54:09;;;;;;;4.47;3.07;;;1.80;99.90;;;;;;5013691;28;20201;-77
2020/12/29 01:56:41;;;;;;;4.17;3.47;;;1.80;99.90;;;;;;5013291;28;20448;-78
2020/12/29 01:59:13;;;;;;;3.92;3.42;;;1.90;99.90;;;;;;5013410;28;20405;-78
2020/12/29 02:01:43;;;;;;;4.57;3.50;;;1.80;99.90;;;;;;5013515;28;20212;-77
2020/12/29 02:04:11;;;;;;;3.22;2.90;;;1.80;99.90;;;;;;5013519;28;20166;-77
2020/12/29 02:06:38;;;;;;;5.47;3.67;;;1.80;99.90;;;;;;5012864;28;20218;-78
2020/12/29 02:09:09;;;;;;;4.18;3.40;;;1.90;99.90;;;;;;5011878;28;20253;-77
2020/12/29 02:11:35;;;;;;;4.47;4.07;;;1.90;99.90;;;;;;5013213;28;20206;-77
2020/12/29 02:14:03;;;;;;;6.10;3.20;;;1.90;99.90;;;;;;5013211;28;20218;-77
2020/12/29 02:16:29;;;;;;;4.03;3.58;;;1.90;99.90;;;;;;5012635;28;20497;-77
2020/12/29 02:18:54;;;;;;;5.00;4.43;;;1.90;99.90;;;;;;5013368;28;20533;-77
2020/12/29 02:21:20;;;;;;;4.17;3.70;;;1.90;99.90;;;;;;5012762;28;20603;-77
2020/12/29 02:23:46;;;;;;;4.63;4.23;;;1.90;99.90;;;;;;5012887;28;20193;-77
2020/12/29 02:26:12;;;;;;;5.27;3.47;;;1.80;99.90;;;;;;5012531;28;20209;-78
2020/12/29 02:28:37;;;;;;;4.07;3.67;;;1.90;99.90;;;;;;5013393;28;20907;-78
2020/12/29 02:31:03;;;;;;;5.00;3.50;;;1.90;99.90;;;;;;5012792;28;20213;-77
2020/12/29 02:33:29;;;;;;;5.77;4.10;;;1.90;99.90;;;;;;5012744;28;20280;-77
2020/12/29 02:35:55;;;;;;;5.90;4.57;;;1.90;99.90;;;;;;5012446;28;20511;-77
2020/12/29 02:38:22;;;;;;;6.50;4.90;;;1.90;99.90;;;;;;5012998;28;20208;-77
2020/12/29 02:40:49;;;;;;;5.57;4.18;;;1.90;99.90;;;;;;5012667;28;20214;-77
2020/12/29 02:43:14;;;;;;;5.40;4.90;;;1.90;99.90;;;;;;5012802;28;20235;-78
2020/12/29 02:45:40;;;;;;;6.10;4.77;;;1.90;99.90;;;;;;5012296;28;20741;-77
2020/12/29 02:48:06;;;;;;;5.93;5.13;;;1.90;99.90;;;;;;5012619;28;20166;-77
2020/12/29 02:50:32;;;;;;;5.53;4.97;;;1.90;99.90;;;;;;5012083;28;20228;-78
2020/12/29 02:53:01;;;;;;;5.77;5.23;;;1.80;99.90;;;;;;5012649;28;20182;-78
2020/12/29 02:55:27;;;;;;;6.00;4.40;;;1.80;99.90;;;;;;5012037;28;20275;-77
2020/12/29 02:57:53;;;;;;;5.77;5.17;;;1.80;99.90;;;;;;5010653;28;20224;-78
2020/12/29 03:00:21;;;;;;;5.70;5.15;;;1.80;99.90;;;;;;5012068;28;20202;-78
2020/12/29 03:02:46;;;;;;;5.88;4.70;;;1.90;99.90;;;;;;5012385;28;20272;-78
2020/12/29 03:05:13;;;;;;;5.60;4.37;;;1.90;99.90;;;;;;5011761;28;20642;-77
2020/12/29 03:07:39;;;;;;;10.32;4.80;;;1.90;99.90;;;;;;5013030;28;20166;-78
2020/12/29 03:10:09;;;;;;;7.43;4.70;;;2.00;99.90;;;;;;5012747;28;20188;-77
2020/12/29 03:12:40;;;;;;;6.28;4.85;;;1.90;99.90;;;;;;5013653;28;20185;-76
2020/12/29 03:15:07;;;;;;;8.48;5.00;;;1.90;99.90;;;;;;5013271;28;20193;-77
2020/12/29 03:17:34;;;;;;;6.10;5.53;;;1.90;99.90;;;;;;5012494;28;20589;-77
2020/12/29 03:20:04;;;;;;;5.03;4.53;;;1.90;99.90;;;;;;5011835;28;20173;-77
2020/12/29 03:22:29;;;;;;;6.25;4.53;;;1.90;99.90;;;;;;5013430;28;20190;-77
2020/12/29 03:24:55;;;;;;;8.33;5.07;;;2.00;99.90;;;;;;5012658;28;20178;-76
2020/12/29 03:27:21;;;;;;;6.10;5.00;;;2.10;99.90;;;;;;5013988;28;20248;-77
2020/12/29 03:29:46;;;;;;;5.80;4.83;;;2.20;99.90;;;;;;5013868;28;20660;-77
2020/12/29 03:32:12;;;;;;;5.83;4.47;;;2.10;99.90;;;;;;5013821;28;20572;-77
2020/12/29 03:34:38;;;;;;;5.17;4.67;;;2.10;99.90;;;;;;5013909;28;20201;-77
2020/12/29 03:37:05;;;;;;;8.83;4.57;;;2.00;99.90;;;;;;5013351;28;20190;-77
2020/12/29 03:39:31;;;;;;;6.13;4.45;;;1.90;99.90;;;;;;5013703;28;20205;-77
2020/12/29 03:41:57;;;;;;;7.00;5.50;;;1.90;99.90;;;;;;5013828;28;20259;-77
2020/12/29 03:44:23;;;;;;;6.77;5.47;;;1.90;99.90;;;;;;5013599;28;20181;-76
2020/12/29 03:46:49;;;;;;;6.93;5.47;;;2.00;99.90;;;;;;5012316;28;21145;-77
2020/12/29 03:49:14;;;;;;;6.73;5.67;;;1.90;99.90;;;;;;5013283;28;20177;-77
2020/12/29 03:51:40;;;;;;;7.30;4.67;;;1.90;99.90;;;;;;5013165;28;20217;-77
2020/12/29 03:54:06;;;;;;;8.27;6.40;;;1.90;99.90;;;;;;5013345;28;20197;-77
2020/12/29 03:56:32;;;;;;;8.60;5.23;;;1.90;99.90;;;;;;5013523;28;20236;-77
2020/12/29 03:58:57;;;;;;;8.60;5.93;;;1.90;99.90;;;;;;5013657;28;20647;-77
2020/12/29 04:01:23;;;;;;;11.07;5.70;;;1.90;99.90;;;;;;5012661;28;20202;-77
2020/12/29 04:03:49;;;;;;;6.10;5.47;;;1.90;99.90;;;;;;5012403;28;20232;-77
2020/12/29 04:06:15;;;;;;;8.07;6.25;;;2.00;99.90;;;;;;5012138;28;20210;-77
2020/12/29 04:08:40;;;;;;;6.23;4.50;;;2.00;99.90;;;;;;5011573;28;20229;-77
2020/12/29 04:11:07;;;;;;;6.43;5.73;;;1.90;99.90;;;;;;5012441;28;20213;-77
2020/12/29 04:13:33;;;;;;;6.90;5.43;;;2.00;99.90;;;;;;5011456;28;20226;-76
2020/12/29 04:15:59;;;;;;;7.30;5.50;;;1.90;99.90;;;;;;5012706;28;20742;-77
2020/12/29 04:18:24;;;;;;;6.53;5.13;;;1.90;99.90;;;;;;5012982;28;20192;-77
2020/12/29 04:20:50;;;;;;;7.77;5.10;;;1.80;99.90;;;;;;5012668;28;20545;-77
2020/12/29 04:23:16;;;;;;;6.20;5.60;;;1.70;99.90;;;;;;5012594;28;20486;-77
2020/12/29 04:25:41;;;;;;;8.33;4.50;;;1.70;99.90;;;;;;5012641;28;20704;-77
2020/12/29 04:28:07;;;;;;;6.30;5.30;;;1.60;99.90;;;;;;5012575;28;20170;-76
2020/12/29 04:30:33;;;;;;;6.30;4.80;;;1.70;99.90;;;;;;5012367;28;20569;-77
2020/12/29 04:32:58;;;;;;;9.30;5.40;;;1.60;99.90;;;;;;5012497;28;20623;-77
2020/12/29 04:35:24;;;;;;;6.33;4.60;;;1.60;99.90;;;;;;5010871;28;20759;-77
2020/12/29 04:37:50;;;;;;;6.53;5.10;;;1.50;99.90;;;;;;5012661;28;20264;-77
2020/12/29 04:40:16;;;;;;;7.43;5.10;;;1.50;99.90;;;;;;5010699;28;20188;-77
2020/12/29 04:42:42;;;;;;;6.20;5.13;;;1.50;99.90;;;;;;5011135;28;20568;-77
2020/12/29 04:45:08;;;;;;;6.53;4.60;;;1.40;99.90;;;;;;5012375;28;20703;-77
2020/12/29 04:47:34;;;;;;;7.13;4.73;;;1.40;99.90;;;;;;5012416;28;20210;-77
2020/12/29 04:50:01;;;;;;;6.32;4.72;;;1.40;99.90;;;;;;5012158;28;20185;-77
2020/12/29 04:52:27;;;;;;;6.40;5.18;;;1.30;99.90;;;;;;5012473;28;20194;-77
2020/12/29 04:54:54;;;;;;;7.05;5.07;;;1.30;99.90;;;;;;5011959;28;20477;-77
2020/12/29 04:57:22;;;;;;;8.88;5.78;;;1.30;99.90;;;;;;5011590;28;20214;-76
2020/12/29 04:59:48;;;;;;;5.40;4.90;;;1.30;99.90;;;;;;5012534;28;20162;-77
2020/12/29 05:02:17;;;;;;;5.88;5.25;;;1.30;99.90;;;;;;5011577;28;20699;-77
2020/12/29 05:04:43;;;;;;;6.85;4.78;;;1.30;99.90;;;;;;5011748;28;20469;-77
2020/12/29 05:07:09;;;;;;;6.30;5.50;;;1.20;99.90;;;;;;5010762;28;20696;-77
2020/12/29 05:09:35;;;;;;;6.20;4.87;;;1.20;99.90;;;;;;5012097;28;20253;-77
2020/12/29 05:12:02;;;;;;;5.25;4.45;;;1.20;99.90;;;;;;5011509;28;20503;-77
2020/12/29 05:14:28;;;;;;;6.03;4.72;;;1.20;99.90;;;;;;5010800;28;20288;-77
2020/12/29 05:16:55;;;;;;;7.80;5.78;;;1.10;99.90;;;;;;5011473;28;20206;-77
2020/12/29 05:19:22;;;;;;;6.75;5.22;;;1.10;99.90;;;;;;4992983;28;20163;-77
2020/12/29 05:21:49;;;;;;;8.18;4.35;;;1.10;99.90;;;;;;4998633;28;20221;-77
2020/12/29 05:24:20;;;;;;;5.43;4.47;;;1.00;99.90;;;;;;5015882;28;20162;-76
2020/12/29 05:26:58;;;;;;;7.15;4.68;;;1.00;99.90;;;;;;4995734;28;20218;-77
2020/12/29 05:29:27;;;;;;;7.25;4.93;;;1.00;99.90;;;;;;4996832;28;20424;-77
2020/12/29 05:31:53;;;;;;;6.47;4.78;;;0.90;99.90;;;;;;4993949;28;20245;-76
2020/12/29 05:34:21;;;;;;;8.25;6.00;;;0.90;99.90;;;;;;4996030;28;20677;-76
2020/12/29 05:36:47;;;;;;;5.30;4.35;;;1.00;99.90;;;;;;5014575;28;20220;-76
2020/12/29 05:39:14;;;;;;;5.10;4.60;;;0.90;99.90;;;;;;5013743;28;20170;-77
2020/12/29 05:41:45;;;;;;;6.47;5.22;;;0.90;99.90;;;;;;5013781;28;20206;-77
2020/12/29 05:44:26;;;;;;;8.90;4.20;;;0.90;99.90;;;;;;5014355;28;20154;-77
2020/12/29 05:47:02;;;;;;;6.20;4.45;;;0.90;99.90;;;;;;5013292;28;20236;-77
2020/12/29 05:49:31;;;;;;;4.60;4.18;;;0.90;99.90;;;;;;5013881;28;20166;-77
2020/12/29 05:51:57;;;;;;;5.80;4.57;;;0.90;99.90;;;;;;5013196;28;20252;-77
2020/12/29 05:54:25;;;;;;;7.07;5.55;;;0.90;99.90;;;;;;5013637;28;20644;-77
2020/12/29 05:56:52;;;;;;;6.78;4.90;;;0.90;99.90;;;;;;5013350;28;20730;-77
2020/12/29 05:59:18;;;;;;;7.28;4.53;;;0.90;99.90;;;;;;5013740;28;20170;-77
2020/12/29 06:01:53;;;;;;;7.60;5.00;;;0.80;99.90;;;;;;5011483;28;20213;-77
2020/12/29 06:04:20;;;;;;;4.25;3.10;;;0.80;99.90;;;;;;5013012;28;20243;-77
2020/12/29 06:06:48;;;;;;;5.00;4.45;;;0.80;99.90;;;;;;5012371;28;20241;-77
2020/12/29 06:09:19;;;;;;;4.05;3.40;;;0.80;99.90;;;;;;5012331;28;20209;-77
2020/12/29 06:11:48;;;;;;;4.22;3.75;;;0.80;99.90;;;;;;5012654;28;20241;-77
2020/12/29 06:14:18;;;;;;;5.88;3.78;;;0.80;99.90;;;;;;5012609;28;20211;-77
2020/12/29 06:16:45;;;;;;;4.03;3.10;;;0.90;99.90;;;;;;5012343;28;20213;-77
2020/12/29 06:19:31;;;;;;;6.78;3.30;;;0.90;99.90;;;;;;5012497;28;20637;-77
2020/12/29 06:22:08;;;;;;;4.97;2.70;;;0.90;99.90;;;;;;5012871;28;20221;-76
2020/12/29 06:24:36;;;;;;;9.13;3.40;;;0.90;99.90;;;;;;5002890;28;20644;-77
2020/12/29 06:27:04;;;;;;;3.45;3.13;;;0.90;99.90;;;;;;5012842;28;20707;-76
2020/12/29 06:29:31;;;;;;;5.10;3.25;;;0.90;99.90;;;;;;5013633;28;20197;-77
2020/12/29 06:32:01;;;;;;;4.22;2.92;;;1.00;99.90;;;;;;5012004;28;20228;-77
2020/12/29 06:34:27;;;;;;;3.00;2.80;;;1.00;99.90;;;;;;5012652;28;20197;-77
2020/12/29 06:36:55;;;;;;;4.50;3.30;;;1.10;99.90;;;;;;5012144;28;20690;-77
2020/12/29 06:39:22;;;;;;;4.22;3.40;;;1.10;99.90;;;;;;5011786;28;20427;-76
2020/12/29 06:41:49;;;;;;;2.50;2.30;;;1.20;99.90;;;;;;5003132;28;20257;-77
2020/12/29 06:44:15;;;;;;;6.72;3.22;;;1.20;99.90;;;;;;5012491;28;20162;-77
2020/12/29 06:46:53;;;;;;;4.60;3.30;;;1.30;99.90;;;;;;5011778;28;20218;-77
2020/12/29 06:49:21;;;;;;;6.13;3.17;;;1.30;99.90;;;;;;5012395;28;20170;-77
2020/12/29 06:51:48;;;;;;;5.38;3.60;;;1.30;99.90;;;;;;5012910;28;20209;-76
2020/12/29 06:54:51;;;;;;;6.97;3.30;;;1.30;99.90;;;;;;5014098;28;20205;-76
2020/12/29 06:57:21;;;;;;;4.32;3.90;;;1.50;99.90;;;;;;5013326;28;20225;-76
2020/12/29 06:59:46;;;;;;;7.65;4.63;;;1.40;99.90;;;;;;5013389;28;21388;-76
2020/12/29 07:02:20;;;;;;;5.00;3.70;;;1.50;99.90;;;;;;5011795;28;20240;-77
2020/12/29 07:04:54;;;;;;;4.18;3.38;;;1.50;99.90;;;;;;5011605;28;20174;-77
2020/12/29 07:07:32;;;;;;;4.35;3.25;;;1.50;99.90;;;;;;5011393;28;20300;-77
2020/12/29 07:09:59;;;;;;;5.00;3.42;;;1.50;99.90;;;;;;5011682;28;20177;-77
2020/12/29 07:12:29;;;;;;;4.78;3.88;;;1.50;99.90;;;;;;5011730;28;20206;-77
2020/12/29 07:14:59;;;;;;;5.25;4.10;;;1.50;99.90;;;;;;5011449;28;20197;-77
2020/12/29 07:17:25;;;;;;;5.30;4.53;;;1.50;99.90;;;;;;5010751;28;20202;-76
2020/12/29 07:19:54;;;;;;;9.60;4.57;;;1.50;99.90;;;;;;5012172;28;20162;-76
2020/12/29 07:22:21;;;;;;;5.13;4.63;;;1.50;99.90;;;;;;5013230;28;20460;-76
2020/12/29 07:24:47;;;;;;;5.60;4.35;;;1.60;99.90;;;;;;5014402;28;20176;-76
2020/12/29 07:27:15;;;;;;;7.13;4.10;;;1.60;99.90;;;;;;5013119;28;20220;-76
2020/12/29 07:30:00;;;;;;;8.77;3.47;;;1.60;99.90;;;;;;5014104;28;20205;-76
2020/12/29 07:32:26;;;;;;;4.65;3.78;;;1.60;99.90;;;;;;5012104;28;20343;-76
2020/12/29 07:34:52;;;;;;;5.75;4.30;;;1.60;99.90;;;;;;5013868;28;20197;-76
2020/12/29 07:37:23;;;;;;;10.17;5.67;;;1.60;99.90;;;;;;5013541;28;20201;-76
2020/12/29 07:39:49;;;;;;;9.80;5.07;;;1.60;99.90;;;;;;5012964;28;20467;-77
2020/12/29 07:42:15;;;;;;;7.40;5.07;;;1.70;99.90;;;;;;5011910;28;20238;-76
2020/12/29 07:44:44;;;;;;;6.57;5.45;;;1.70;99.90;;;;;;5013179;28;20177;-76
2020/12/29 07:47:11;;;;;;;6.22;4.85;;;1.60;99.90;;;;;;5012194;28;20209;-76
2020/12/29 07:49:37;;;;;;;6.78;6.07;;;1.70;99.90;;;;;;5013345;28;20184;-76
2020/12/29 07:52:02;;;;;;;11.63;5.53;;;1.70;99.90;;;;;;5012734;28;20297;-76
2020/12/29 07:54:28;;;;;;;8.53;5.63;;;1.70;99.90;;;;;;5014554;28;20890;-76
2020/12/29 07:56:55;;;;;;;8.53;6.27;;;1.70;99.90;;;;;;5013610;28;20480;-76
2020/12/29 07:59:23;;;;;;;8.02;6.10;;;1.70;99.90;;;;;;5013908;28;20648;-75
2020/12/29 08:01:50;;;;;;;8.00;5.03;;;1.70;99.90;;;;;;5013243;28;20644;-76
2020/12/29 08:04:30;;;;;;;11.70;7.28;;;1.80;99.90;;;;;;5013304;28;20162;-76
2020/12/29 08:06:57;;;;;;;8.65;5.53;;;1.80;99.90;;;;;;5012935;28;20213;-76
2020/12/29 08:09:23;;;;;;;10.15;6.20;;;1.80;99.90;;;;;;5012916;28;20212;-76
2020/12/29 08:11:49;;;;;;;7.43;5.43;;;1.90;99.90;;;;;;5012233;28;20218;-76
2020/12/29 08:14:16;;;;;;;6.57;4.75;;;1.80;99.90;;;;;;5011260;28;20584;-76
2020/12/29 08:16:42;;;;;;;6.75;5.40;;;1.80;99.90;;;;;;5010796;28;20700;-77
2020/12/29 08:19:10;;;;;;;9.55;5.35;;;1.80;99.90;;;;;;5011071;28;20181;-77
2020/12/29 08:21:38;;;;;;;6.60;5.75;;;1.80;99.90;;;;;;5010239;28;20201;-77
2020/12/29 08:24:06;;;;;;;6.45;5.82;;;1.80;99.90;;;;;;5009241;28;20233;-77
2020/12/29 08:26:32;;;;;;;10.18;6.43;;;1.80;99.90;;;;;;5010220;28;20218;-77
2020/12/29 08:28:58;;;;;;;10.45;7.50;;;1.80;99.90;;;;;;5010810;28;20178;-77
2020/12/29 08:31:27;;;;;;;9.05;5.45;;;1.80;99.90;;;;;;5010261;28;20594;-76
2020/12/29 08:33:55;;;;;;;9.70;6.70;;;1.80;99.90;;;;;;5011109;28;20202;-76
2020/12/29 08:36:26;;;;;;;11.02;4.80;;;1.80;99.90;;;;;;5010349;28;20209;-76
2020/12/29 08:39:05;;;;;;;7.75;6.05;;;1.80;99.90;;;;;;5011072;28;20748;-76
2020/12/29 08:41:38;;;;;;;7.50;5.53;;;1.80;99.90;;;;;;5010614;28;20201;-77
2020/12/29 08:44:08;;;;;;;11.05;6.28;;;1.80;99.90;;;;;;5010542;28;20193;-77
2020/12/29 08:46:35;;;;;;;8.40;5.82;;;1.80;99.90;;;;;;5010085;28;20209;-76
2020/12/29 08:49:04;;;;;;;6.32;5.65;;;1.90;99.90;;;;;;5009825;28;20170;-76
2020/12/29 08:51:33;;;;;;;7.82;6.10;;;1.90;99.90;;;;;;5010210;28;20206;-76
2020/12/29 08:54:15;;;;;;;10.45;6.65;;;1.90;99.90;;;;;;5010536;28;20547;-77
2020/12/29 08:56:43;;;;;;;11.63;6.70;;;1.90;99.90;;;;;;5012715;28;20220;-77
2020/12/29 08:59:16;;;;;;;9.48;6.88;;;2.00;99.90;;;;;;5014393;28;20211;-77
2020/12/29 09:01:43;;;;;;;9.07;6.15;;;2.00;99.90;;;;;;5013866;28;20218;-77
2020/12/29 09:04:37;;;;;;;9.52;6.28;;;2.00;99.90;;;;;;5013356;28;20651;-76
2020/12/29 09:07:09;;;;;;;12.15;6.82;;;2.00;99.90;;;;;;5014099;28;20255;-78
2020/12/29 09:09:37;;;;;;;13.43;7.68;;;2.00;99.90;;;;;;5014270;28;20581;-78
2020/12/29 09:12:16;;;;;;;11.32;6.60;;;2.00;99.90;;;;;;5013160;28;20292;-78
2020/12/29 09:15:04;;;;;;;10.25;7.55;;;2.10;99.90;;;;;;5014072;28;20201;-79
2020/12/29 09:17:35;;;;;;;12.10;7.85;;;2.10;99.90;;;;;;5004553;28;20285;-77
2020/12/29 09:20:08;;;;;;;11.90;7.65;;;2.10;99.90;;;;;;5006697;28;20656;-77
2020/12/29 09:22:34;;;;;;;8.88;6.60;;;2.20;99.90;;;;;;5011822;28;22162;-77
2020/12/29 09:25:00;;;;;;;15.80;7.82;;;2.30;99.90;;;;;;5012785;28;20181;-79
2020/12/29 09:27:32;;;;;;;11.63;7.80;;;2.30;99.90;;;;;;5014922;28;20256;-79
2020/12/29 09:30:11;;;;;;;13.15;7.82;;;2.40;99.90;;;;;;5016220;28;20173;-79
2020/12/29 09:32:38;;;;;;;8.88;7.50;;;2.50;99.90;;;;;;5011803;28;20631;-78
2020/12/29 09:35:25;;;;;;;8.98;7.72;;;2.50;99.90;;;;;;4999390;28;20586;-78
2020/12/29 09:38:06;;;;;;;12.73;8.13;;;2.60;99.90;;;;;;5014866;28;20170;-79
2020/12/29 09:40:31;;;;;;;8.55;7.57;;;2.60;99.90;;;;;;5014569;28;20237;-78
2020/12/29 09:43:07;;;;;;;8.53;6.67;;;2.70;99.90;;;;;;5013371;28;20684;-80
2020/12/29 09:45:33;;;;;;;10.15;7.32;;;2.70;99.90;;;;;;5013308;28;20204;-77
2020/12/29 09:47:58;;;;;;;11.03;7.87;;;2.70;99.90;;;;;;5011282;28;20243;-80
2020/12/29 09:50:24;;;;;;;7.83;6.63;;;2.80;99.90;;;;;;5013975;28;20209;-78
2020/12/29 09:52:52;;;;;;;11.43;7.17;;;2.80;99.90;;;;;;5014025;28;20252;-78
2020/12/29 09:55:18;;;;;;;7.45;6.15;;;2.80;99.90;;;;;;5011513;28;20649;-79
2020/12/29 09:57:44;;;;;;;7.30;6.40;;;2.80;99.90;;;;;;4995271;28;20254;-78
2020/12/29 10:00:10;;;;;;;8.77;5.90;;;2.80;99.90;;;;;;5004709;28;20266;-78
2020/12/29 10:02:35;;;;;;;8.27;7.43;;;2.90;99.90;;;;;;5011127;28;20190;-77
2020/12/29 10:05:01;;;;;;;7.90;6.80;;;2.90;99.90;;;;;;5001668;28;20217;-79
2020/12/29 10:07:27;;;;;;;8.60;6.83;;;3.10;99.90;;;;;;5013041;28;20305;-78
2020/12/29 10:09:53;;;;;;;10.73;8.20;;;3.10;99.90;;;;;;5013595;28;20412;-79
2020/12/29 10:12:19;;;;;;;11.53;8.37;;;3.10;99.90;;;;;;5012294;28;20602;-78
2020/12/29 10:14:45;;;;;;;12.03;8.60;;;3.10;99.90;;;;;;5004909;28;20447;-78
2020/12/29 10:17:11;;;;;;;12.32;9.20;;;3.10;99.90;;;;;;5012297;28;20452;-79
2020/12/29 10:19:37;;;;;;;13.57;11.17;;;3.20;99.90;;;;;;5013568;28;20181;-77
2020/12/29 10:22:03;;;;;;;13.50;10.27;;;3.10;99.90;;;;;;5004720;28;20206;-78
2020/12/29 10:24:29;;;;;;;12.50;9.10;;;3.10;99.90;;;;;;4994287;28;20589;-78
2020/12/29 10:26:56;;;;;;;16.55;10.20;;;3.10;99.90;;;;;;5006660;28;20815;-78
2020/12/29 10:29:22;;;;;;;13.05;8.07;;;3.20;99.90;;;;;;5013087;28;20297;-77
2020/12/29 10:31:50;;;;;;;12.48;9.38;;;3.20;99.90;;;;;;5012689;28;20268;-78
2020/12/29 10:34:18;;;;;;;12.35;9.25;;;3.30;99.90;;;;;;5009062;28;20248;-78
2020/12/29 10:36:44;;;;;;;15.10;9.65;;;3.50;99.90;;;;;;4993279;28;20206;-77
2020/12/29 10:39:10;;;;;;;11.90;8.77;;;3.50;99.90;;;;;;5008086;28;20173;-78
2020/12/29 10:41:37;;;;;;;18.20;10.37;;;3.50;99.90;;;;;;5011349;28;20202;-78
2020/12/29 10:44:04;;;;;;;12.00;10.25;;;3.50;99.90;;;;;;5005580;28;20221;-76
2020/12/29 10:46:30;;;;;;;11.82;9.95;;;3.50;99.90;;;;;;5009051;28;20286;-77
2020/12/29 10:48:56;;;;;;;11.63;10.18;;;3.50;99.90;;;;;;5010261;28;20628;-76
2020/12/29 10:51:23;;;;;;;13.80;9.70;;;3.50;99.90;;;;;;5010199;28;20209;-77
2020/12/29 10:53:50;;;;;;;10.65;9.43;;;3.60;99.90;;;;;;5011820;28;20496;-76
2020/12/29 10:56:17;;;;;;;13.52;10.13;;;3.60;99.90;;;;;;5006538;28;20233;-77
2020/12/29 10:58:43;;;;;;;12.90;9.93;;;3.70;99.90;;;;;;5034219;28;20178;-77
2020/12/29 11:01:10;;;;;;;18.67;9.73;;;3.60;99.90;;;;;;5011387;28;20217;-77
2020/12/29 11:03:36;;;;;;;14.98;9.90;;;3.70;99.90;;;;;;5012030;28;20186;-78
2020/12/29 11:06:10;;;;;;;17.08;10.68;;;3.70;99.90;;;;;;5011593;28;20216;-77
2020/12/29 11:08:36;;;;;;;12.88;8.63;;;3.60;99.90;;;;;;5012612;28;20580;-77
2020/12/29 11:11:02;;;;;;;13.13;9.17;;;3.60;99.90;;;;;;5011744;28;20228;-77
2020/12/29 11:13:27;;;;;;;11.73;9.03;;;3.60;99.90;;;;;;5012288;28;20202;-76
2020/12/29 11:15:53;;;;;;;13.67;8.60;;;3.60;99.90;;;;;;5008813;28;20221;-78
2020/12/29 11:18:19;;;;;;;9.30;7.63;;;3.60;99.90;;;;;;5011185;28;20238;-78
2020/12/29 11:20:44;;;;;;;9.90;7.33;;;3.70;99.90;;;;;;5010956;28;20213;-78
2020/12/29 11:23:10;;;;;;;12.37;8.03;;;3.60;99.90;;;;;;5012920;28;20194;-77
2020/12/29 11:25:36;;;;;;;9.23;8.23;;;3.80;99.90;;;;;;5010820;28;20213;-77
2020/12/29 11:28:02;;;;;;;11.03;7.57;;;3.80;99.90;;;;;;5011965;28;20309;-77
2020/12/29 11:30:30;;;;;;;13.03;7.73;;;3.80;99.90;;;;;;5011338;28;20210;-77
2020/12/29 11:32:56;;;;;;;13.32;6.93;;;3.90;99.90;;;;;;5011920;28;20192;-77
2020/12/29 11:35:22;;;;;;;9.23;7.20;;;4.00;99.90;;;;;;5010829;28;20225;-77
2020/12/29 11:37:47;;;;;;;11.17;7.20;;;4.00;99.90;;;;;;5010772;28;20170;-77
2020/12/29 11:40:13;;;;;;;13.30;6.37;;;4.00;99.90;;;;;;5009495;28;20181;-77
2020/12/29 11:42:39;;;;;;;9.80;7.13;;;4.00;99.90;;;;;;5011731;28;20339;-78
2020/12/29 11:45:08;;;;;;;7.80;6.00;;;4.00;99.90;;;;;;5011040;23;20615;-77
2020/12/29 11:47:34;;;;;;;9.93;6.18;;;4.00;99.90;;;;;;4995999;28;20178;-77
2020/12/29 11:49:59;;;;;;;9.63;6.90;;;4.00;99.90;;;;;;5011489;28;20170;-78
2020/12/29 11:52:25;;;;;;;9.43;5.67;;;4.00;99.90;;;;;;5011302;28;20213;-77
2020/12/29 11:54:51;;;;;;;9.50;5.90;;;4.00;99.90;;;;;;5009930;28;20209;-77
2020/12/29 11:57:17;;;;;;;6.45;5.40;;;4.00;99.90;;;;;;5016582;28;20448;-77
2020/12/29 11:59:44;;;;;;;7.33;6.20;;;4.00;99.90;;;;;;5013468;23;20174;-76
2020/12/29 12:02:09;;;;;;;7.20;5.53;;;4.00;99.90;;;;;;5029481;28;20224;-76
2020/12/29 12:04:35;;;;;;;7.73;5.87;;;4.10;99.90;;;;;;5022009;28;20169;-76
2020/12/29 12:07:01;;;;;;;10.60;7.07;;;4.10;99.90;;;;;;5010143;28;20240;-76
2020/12/29 12:09:27;;;;;;;12.63;6.40;;;4.20;99.90;;;;;;5028984;28;20186;-76
2020/12/29 12:11:56;;;;;;;10.90;6.50;;;4.20;99.90;;;;;;5027575;28;20209;-76
2020/12/29 12:14:21;;;;;;;7.15;6.18;;;4.20;99.90;;;;;;5031372;28;20566;-76
2020/12/29 12:16:47;;;;;;;7.03;5.87;;;4.20;99.90;;;;;;5014793;28;20756;-75
2020/12/29 12:19:13;;;;;;;6.07;4.93;;;4.10;99.90;;;;;;5019835;28;20170;-77
2020/12/29 12:21:38;;;;;;;6.83;5.00;;;4.10;99.90;;;;;;5019374;28;20262;-76
2020/12/29 12:24:07;;;;;;;8.37;6.70;;;4.20;99.90;;;;;;5018065;28;20668;-77
2020/12/29 12:26:33;;;;;;;5.90;5.30;;;4.20;99.90;;;;;;5026462;28;20216;-76
2020/12/29 12:28:58;;;;;;;13.07;5.73;;;4.20;99.90;;;;;;5030721;28;20177;-76
2020/12/29 12:31:27;;;;;;;5.77;4.83;;;4.30;99.90;;;;;;5032494;28;20227;-77
2020/12/29 12:33:53;;;;;;;5.53;4.97;;;4.30;99.90;;;;;;5015616;28;20225;-78
2020/12/29 12:36:19;;;;;;;7.80;4.67;;;4.30;99.90;;;;;;5014501;28;20213;-77
2020/12/29 12:38:45;;;;;;;7.05;4.70;;;4.40;99.90;;;;;;5022533;28;20173;-77
2020/12/29 12:41:11;;;;;;;6.70;4.47;;;4.40;99.90;;;;;;5016086;28;20236;-76
2020/12/29 12:43:38;;;;;;;5.30;4.65;;;4.40;99.90;;;;;;5016452;28;20451;-76
2020/12/29 12:46:04;;;;;;;8.15;5.18;;;4.40;99.90;;;;;;5017156;28;20209;-75
2020/12/29 12:48:30;;;;;;;6.80;4.75;;;4.30;99.90;;;;;;5025565;28;20649;-76
2020/12/29 12:50:56;;;;;;;5.90;5.30;;;4.30;99.90;;;;;;5015598;28;20579;-75
2020/12/29 12:53:22;;;;;;;8.13;4.93;;;4.40;99.90;;;;;;5015677;28;20452;-76
2020/12/29 12:55:48;;;;;;;6.45;5.15;;;4.40;99.90;;;;;;5035496;28;20209;-75
2020/12/29 12:58:14;;;;;;;6.03;5.38;;;4.40;99.90;;;;;;5028807;28;20799;-76